Time;durP1;ratioP1;P1;durP2;ratioP2;P2;SDS_P1;SDS_P2;PMS_P1;PMS_P2;Temp;Humidity;BMP_temperature;BMP_pressure;BME280_temperature;BME280_humidity;BME280_pressure;Samples;Min_cycle;Max_cycle;Signal;HPM_P1;HPM_P2
2021/06/06 00:00:42;;;;;;;12.10;10.87;;;18.70;99.90;;;;;;10414161;28;20284;-81
2021/06/06 00:05:49;;;;;;;11.60;10.50;;;18.70;99.90;;;;;;10420927;28;20301;-82
2021/06/06 00:10:53;;;;;;;9.83;8.90;;;18.70;99.90;;;;;;10402519;28;20240;-81
2021/06/06 00:15:55;;;;;;;10.10;9.20;;;18.70;99.90;;;;;;10403429;28;20226;-81
2021/06/06 00:20:58;;;;;;;10.03;9.10;;;18.70;99.90;;;;;;10403970;28;20217;-81
2021/06/06 00:26:00;;;;;;;10.30;9.30;;;18.60;99.90;;;;;;10420580;28;20595;-81
2021/06/06 00:31:04;;;;;;;9.60;8.70;;;18.60;99.90;;;;;;10404692;28;20742;-81
2021/06/06 00:36:09;;;;;;;9.90;8.90;;;18.60;99.90;;;;;;10422768;28;20277;-81
2021/06/06 00:41:13;;;;;;;10.40;8.50;;;18.60;99.90;;;;;;10405427;28;20228;-82
2021/06/06 00:46:17;;;;;;;10.80;8.20;;;18.60;99.90;;;;;;10432735;28;20288;-77
2021/06/06 00:51:24;;;;;;;10.20;9.20;;;18.50;99.90;;;;;;10436682;28;20200;-79
2021/06/06 00:56:28;;;;;;;9.13;8.33;;;18.50;99.90;;;;;;10397873;28;20241;-78
2021/06/06 01:01:35;;;;;;;9.77;8.87;;;18.50;99.90;;;;;;10413416;28;20197;-79
2021/06/06 01:06:43;;;;;;;8.77;8.00;;;18.40;99.90;;;;;;10415558;28;20225;-79
2021/06/06 01:11:55;;;;;;;8.10;7.40;;;18.40;99.90;;;;;;10399556;28;20226;-79
2021/06/06 01:17:05;;;;;;;8.40;7.57;;;18.40;99.90;;;;;;10398162;28;20697;-80
2021/06/06 01:22:45;;;;;;;7.33;6.70;;;18.40;99.90;;;;;;10398970;28;20205;-81
2021/06/06 01:27:57;;;;;;;7.80;7.10;;;18.40;99.90;;;;;;10334241;28;20266;-80
2021/06/06 01:33:06;;;;;;;7.47;6.83;;;18.40;99.90;;;;;;10398189;28;20201;-79
2021/06/06 01:38:13;;;;;;;8.60;7.80;;;18.40;99.90;;;;;;10397440;28;20229;-81
2021/06/06 01:43:23;;;;;;;7.70;7.00;;;18.40;99.90;;;;;;10398060;28;20329;-78
2021/06/06 01:48:30;;;;;;;7.33;6.60;;;18.40;99.90;;;;;;10398260;28;20222;-81
2021/06/06 01:53:36;;;;;;;7.60;6.90;;;18.40;99.90;;;;;;10398357;28;20202;-80
2021/06/06 01:58:39;;;;;;;7.10;6.47;;;18.40;99.90;;;;;;10415171;28;20221;-81
2021/06/06 02:03:48;;;;;;;7.10;6.47;;;18.40;99.90;;;;;;10398290;28;20236;-81
2021/06/06 02:08:58;;;;;;;7.30;6.70;;;18.30;99.90;;;;;;10398230;28;20225;-81
2021/06/06 02:14:10;;;;;;;6.30;5.80;;;18.30;99.90;;;;;;10398835;28;20229;-79
2021/06/06 02:19:15;;;;;;;6.80;6.20;;;18.30;99.90;;;;;;10384967;28;20197;-81
2021/06/06 02:24:23;;;;;;;5.87;5.37;;;18.30;99.90;;;;;;10400948;28;20249;-80
2021/06/06 02:29:36;;;;;;;6.50;6.00;;;18.30;99.90;;;;;;10380868;28;20230;-80
2021/06/06 02:34:44;;;;;;;6.43;5.50;;;18.20;99.90;;;;;;10396119;28;20233;-80
2021/06/06 02:39:51;;;;;;;5.43;5.03;;;18.20;99.90;;;;;;10413451;28;20206;-81
2021/06/06 02:44:58;;;;;;;6.60;6.10;;;18.20;99.90;;;;;;10381375;28;20623;-81
2021/06/06 02:50:07;;;;;;;6.00;5.50;;;18.20;99.90;;;;;;10415929;28;20732;-81
2021/06/06 02:55:15;;;;;;;5.80;5.30;;;18.20;99.90;;;;;;10398330;28;20238;-81
2021/06/06 03:00:26;;;;;;;6.40;5.80;;;18.20;99.90;;;;;;10398407;28;20217;-81
2021/06/06 03:05:31;;;;;;;6.70;5.87;;;18.20;99.90;;;;;;10382040;28;20236;-81
2021/06/06 03:10:37;;;;;;;6.10;5.50;;;18.30;99.90;;;;;;10417202;28;20671;-81
2021/06/06 03:15:46;;;;;;;5.80;5.30;;;18.30;99.90;;;;;;10416429;28;20687;-80
2021/06/06 03:20:53;;;;;;;5.60;5.17;;;18.30;99.90;;;;;;10418108;28;20209;-81
2021/06/06 03:26:06;;;;;;;5.67;5.17;;;18.30;99.90;;;;;;10399830;28;20253;-81
2021/06/06 03:31:20;;;;;;;5.67;5.17;;;18.30;99.90;;;;;;10422395;28;20228;-80
2021/06/06 03:36:27;;;;;;;6.70;6.00;;;18.30;99.90;;;;;;10379604;28;20279;-80
2021/06/06 03:41:30;;;;;;;6.13;5.53;;;18.20;99.90;;;;;;10377023;28;20214;-79
2021/06/06 03:46:36;;;;;;;7.97;6.40;;;18.30;99.90;;;;;;10411768;28;20271;-81
2021/06/06 03:51:39;;;;;;;9.00;6.60;;;18.30;99.90;;;;;;10384293;28;20206;-79
2021/06/06 03:56:43;;;;;;;7.90;6.90;;;18.20;99.90;;;;;;10400870;28;20213;-80
2021/06/06 04:01:50;;;;;;;9.33;6.03;;;18.30;99.90;;;;;;10384342;28;20224;-80
2021/06/06 04:06:54;;;;;;;7.07;6.37;;;18.30;99.90;;;;;;10418428;28;20680;-79
2021/06/06 04:11:58;;;;;;;6.53;5.93;;;18.30;99.90;;;;;;10400797;28;20202;-79
2021/06/06 04:17:01;;;;;;;7.50;6.27;;;18.20;99.90;;;;;;10475099;22;20236;-77
2021/06/06 04:22:05;;;;;;;6.80;6.10;;;18.20;99.90;;;;;;10497807;28;20208;-77
2021/06/06 04:27:07;;;;;;;6.47;5.80;;;18.20;99.90;;;;;;10496795;28;20273;-78
2021/06/06 04:32:15;;;;;;;6.03;5.40;;;18.20;99.90;;;;;;10497369;28;20205;-78
2021/06/06 04:37:20;;;;;;;6.80;5.80;;;18.20;99.90;;;;;;10480150;28;20216;-77
2021/06/06 04:42:23;;;;;;;5.97;5.23;;;18.20;99.90;;;;;;10490514;28;20209;-78
2021/06/06 04:47:30;;;;;;;7.27;5.70;;;18.20;99.90;;;;;;10499389;28;20217;-78
2021/06/06 04:52:36;;;;;;;8.63;6.30;;;18.30;99.90;;;;;;10497114;28;20209;-77
2021/06/06 04:57:40;;;;;;;9.57;5.13;;;18.20;99.90;;;;;;10482519;28;20224;-78
2021/06/06 05:02:45;;;;;;;6.03;5.50;;;18.20;99.90;;;;;;10498179;28;20200;-77
2021/06/06 05:07:55;;;;;;;6.53;5.77;;;18.20;99.90;;;;;;10490918;28;20224;-78
2021/06/06 05:12:57;;;;;;;6.57;5.97;;;18.20;99.90;;;;;;10479393;28;20204;-79
2021/06/06 05:18:01;;;;;;;6.30;5.70;;;18.30;99.90;;;;;;10489870;28;20224;-78
2021/06/06 05:23:03;;;;;;;6.47;5.83;;;18.20;99.90;;;;;;10488931;28;20656;-78
2021/06/06 05:28:08;;;;;;;6.57;6.07;;;18.20;99.90;;;;;;10494140;28;20303;-78
2021/06/06 05:33:12;;;;;;;6.40;5.80;;;18.20;99.90;;;;;;10473797;28;20216;-78
2021/06/06 05:38:14;;;;;;;6.90;6.20;;;18.20;99.90;;;;;;10496937;28;20212;-78
2021/06/06 05:43:18;;;;;;;7.37;6.60;;;18.20;99.90;;;;;;10494710;28;20204;-78
2021/06/06 05:48:21;;;;;;;7.03;6.33;;;18.20;99.90;;;;;;10495370;28;20248;-77
2021/06/06 05:53:23;;;;;;;8.50;7.23;;;18.20;99.90;;;;;;10476401;28;20811;-78
2021/06/06 05:58:24;;;;;;;9.53;8.53;;;18.20;99.90;;;;;;10488242;28;20251;-78
2021/06/06 06:03:28;;;;;;;7.67;6.67;;;18.30;99.90;;;;;;10495051;28;20603;-78
2021/06/06 06:08:33;;;;;;;7.73;6.90;;;18.20;99.90;;;;;;10473555;28;20718;-77
2021/06/06 06:13:39;;;;;;;7.87;7.10;;;18.30;99.90;;;;;;10477231;28;20273;-78
2021/06/06 06:18:42;;;;;;;8.13;6.80;;;18.20;99.90;;;;;;10475930;28;20707;-80
2021/06/06 06:23:44;;;;;;;8.80;7.07;;;18.20;99.90;;;;;;10488784;28;20211;-77
2021/06/06 06:28:46;;;;;;;8.20;7.40;;;18.20;99.90;;;;;;10489598;28;20300;-77
2021/06/06 06:34:17;;;;;;;8.67;7.83;;;18.20;99.90;;;;;;10486784;28;20308;-78
2021/06/06 06:39:18;;;;;;;8.10;7.30;;;18.20;99.90;;;;;;10488687;28;20193;-77
2021/06/06 06:44:20;;;;;;;9.57;8.47;;;18.20;99.90;;;;;;10496068;28;20308;-77
2021/06/06 06:49:26;;;;;;;10.47;8.90;;;18.20;99.90;;;;;;10489770;28;20307;-76
2021/06/06 06:54:27;;;;;;;10.17;8.40;;;18.20;99.90;;;;;;10489470;28;20227;-78
2021/06/06 06:59:29;;;;;;;7.83;7.17;;;18.20;99.90;;;;;;10509211;28;20242;-77
2021/06/06 07:04:32;;;;;;;8.20;7.50;;;18.20;99.90;;;;;;10494192;28;20302;-78
2021/06/06 07:09:34;;;;;;;7.60;7.00;;;18.20;99.90;;;;;;10496089;28;20220;-77
2021/06/06 07:14:36;;;;;;;8.03;7.33;;;18.30;99.90;;;;;;10492954;28;20248;-77
2021/06/06 07:19:39;;;;;;;7.97;7.20;;;18.30;99.90;;;;;;10487960;28;20232;-78
2021/06/06 07:24:45;;;;;;;6.70;6.20;;;18.30;99.90;;;;;;10502616;28;20289;-78
2021/06/06 07:29:48;;;;;;;8.53;7.43;;;18.30;99.90;;;;;;10503492;28;20259;-78
2021/06/06 07:34:52;;;;;;;8.07;7.37;;;18.30;99.90;;;;;;10502955;28;20231;-78
2021/06/06 07:39:53;;;;;;;8.30;7.30;;;18.30;99.90;;;;;;10501438;28;20200;-78
2021/06/06 07:44:55;;;;;;;9.00;8.10;;;18.30;99.90;;;;;;10476450;28;20311;-79
2021/06/06 07:49:59;;;;;;;9.77;8.70;;;18.30;99.90;;;;;;10501166;28;20278;-78
2021/06/06 07:55:00;;;;;;;10.30;9.20;;;18.30;99.90;;;;;;10499865;28;20591;-77
2021/06/06 08:00:04;;;;;;;9.40;8.43;;;18.30;99.90;;;;;;10475733;28;20208;-78
2021/06/06 08:05:18;;;;;;;10.67;9.37;;;18.30;99.90;;;;;;10500075;28;20220;-78
2021/06/06 08:10:21;;;;;;;15.67;9.60;;;18.40;99.90;;;;;;10494185;28;20879;-77
2021/06/06 08:15:24;;;;;;;9.00;8.10;;;18.40;99.90;;;;;;10485057;28;20299;-78
2021/06/06 08:20:31;;;;;;;10.77;8.90;;;18.30;99.90;;;;;;10498541;28;20668;-77
2021/06/06 08:25:32;;;;;;;11.63;9.20;;;18.30;99.90;;;;;;10492666;28;20286;-77
2021/06/06 08:30:37;;;;;;;10.50;9.50;;;18.30;99.90;;;;;;10498205;28;20695;-79
2021/06/06 08:35:41;;;;;;;9.83;8.83;;;18.30;99.90;;;;;;10497024;28;20775;-77
2021/06/06 08:40:53;;;;;;;12.43;10.07;;;18.20;99.90;;;;;;10486795;28;20284;-79
2021/06/06 08:45:58;;;;;;;12.07;10.20;;;18.20;99.90;;;;;;10500323;28;20220;-77
2021/06/06 08:51:16;;;;;;;11.57;9.67;;;18.20;99.90;;;;;;10487400;28;20221;-77
2021/06/06 08:56:22;;;;;;;11.77;9.90;;;18.30;99.90;;;;;;10485696;28;20406;-78
2021/06/06 09:01:36;;;;;;;12.43;10.67;;;18.30;99.90;;;;;;10492716;28;20242;-78
2021/06/06 09:06:46;;;;;;;13.37;11.10;;;18.30;99.90;;;;;;10493954;28;20299;-77
2021/06/06 09:11:47;;;;;;;11.77;10.57;;;18.40;99.90;;;;;;10482798;28;20201;-79
2021/06/06 09:16:59;;;;;;;11.53;10.33;;;18.40;99.90;;;;;;10495883;28;20228;-78
2021/06/06 09:22:03;;;;;;;12.53;10.77;;;18.40;99.90;;;;;;10470115;28;20216;-80
2021/06/06 09:27:11;;;;;;;12.03;10.77;;;18.50;99.90;;;;;;10474218;28;20217;-80
2021/06/06 09:32:15;;;;;;;13.77;12.00;;;18.50;99.90;;;;;;10484434;28;20312;-78
2021/06/06 09:37:22;;;;;;;14.70;12.87;;;18.50;99.90;;;;;;10493736;28;20271;-79
2021/06/06 09:42:39;;;;;;;13.50;12.10;;;18.50;99.90;;;;;;10470275;28;20201;-78
2021/06/06 09:47:41;;;;;;;14.17;12.03;;;18.60;99.90;;;;;;10463258;28;20216;-79
2021/06/06 09:52:46;;;;;;;13.30;11.87;;;18.60;99.90;;;;;;10467003;28;20204;-77
2021/06/06 09:57:50;;;;;;;14.63;13.10;;;18.60;99.90;;;;;;10450094;28;20217;-79
2021/06/06 10:02:55;;;;;;;19.07;15.30;;;18.70;99.90;;;;;;10463633;28;20319;-79
2021/06/06 10:08:01;;;;;;;23.57;20.47;;;18.70;99.90;;;;;;10498236;28;20208;-78
2021/06/06 10:13:06;;;;;;;20.47;18.23;;;18.70;99.90;;;;;;10502602;28;20473;-79
2021/06/06 10:18:13;;;;;;;22.27;19.90;;;18.80;99.90;;;;;;10503670;28;20224;-78
2021/06/06 10:23:22;;;;;;;22.10;19.80;;;18.80;99.90;;;;;;10504573;28;20684;-78
2021/06/06 10:28:30;;;;;;;22.60;19.10;;;18.80;99.90;;;;;;10493564;28;20279;-78
2021/06/06 10:33:34;;;;;;;21.30;19.10;;;18.90;99.90;;;;;;10500105;28;20207;-78
2021/06/06 10:38:42;;;;;;;24.50;21.90;;;18.80;99.90;;;;;;10491864;28;20213;-79
2021/06/06 10:43:50;;;;;;;18.27;16.17;;;18.80;99.90;;;;;;10501639;28;20721;-78
2021/06/06 10:49:07;;;;;;;24.90;22.20;;;18.80;99.90;;;;;;10446582;28;20212;-79
2021/06/06 10:54:36;;;;;;;28.57;22.70;;;18.80;99.90;;;;;;10484288;28;20210;-78
2021/06/06 10:59:48;;;;;;;26.67;23.40;;;18.80;99.90;;;;;;10502551;28;20207;-78
2021/06/06 11:04:53;;;;;;;26.93;22.30;;;18.80;99.90;;;;;;10507125;28;20220;-79
2021/06/06 11:10:03;;;;;;;35.03;27.53;;;18.90;99.90;;;;;;10508409;28;20224;-78
2021/06/06 11:15:21;;;;;;;30.97;27.60;;;19.00;99.90;;;;;;10508673;28;20291;-79
2021/06/06 11:20:32;;;;;;;32.57;26.77;;;19.00;99.90;;;;;;10510004;28;20254;-78
2021/06/06 11:25:43;;;;;;;34.23;30.03;;;19.00;99.90;;;;;;10507565;28;20299;-79
2021/06/06 11:30:45;;;;;;;40.77;31.87;;;19.10;99.90;;;;;;10483588;28;20217;-78
2021/06/06 11:35:51;;;;;;;49.77;34.27;;;19.00;99.90;;;;;;10507374;28;20227;-79
2021/06/06 11:41:13;;;;;;;46.07;34.20;;;19.00;99.90;;;;;;10508103;28;20200;-79
2021/06/06 11:46:22;;;;;;;50.33;38.13;;;18.90;99.90;;;;;;10508889;28;20246;-79
2021/06/06 11:51:29;;;;;;;47.43;37.20;;;18.80;99.90;;;;;;10507575;28;20220;-79
2021/06/06 11:56:35;;;;;;;48.20;36.47;;;18.80;99.90;;;;;;10507146;28;20244;-79
2021/06/06 12:01:49;;;;;;;50.30;35.50;;;18.70;99.90;;;;;;10508236;28;20196;-79
2021/06/06 12:06:51;;;;;;;45.63;34.20;;;18.70;99.90;;;;;;10501255;28;20252;-79
2021/06/06 12:12:06;;;;;;;46.00;36.97;;;18.80;99.90;;;;;;10501881;28;20633;-77
2021/06/06 12:17:19;;;;;;;41.10;30.97;;;18.90;99.90;;;;;;10490847;28;20738;-79
2021/06/06 12:22:28;;;;;;;37.17;29.77;;;18.90;99.90;;;;;;10508677;28;20220;-79
2021/06/06 12:27:33;;;;;;;35.07;29.53;;;19.00;99.90;;;;;;10495269;28;20311;-79
2021/06/06 12:32:37;;;;;;;34.37;29.03;;;19.00;99.90;;;;;;10507545;28;20200;-77
2021/06/06 12:37:40;;;;;;;33.40;28.50;;;19.10;99.90;;;;;;10499578;28;20258;-78
2021/06/06 12:42:44;;;;;;;32.47;27.90;;;19.10;99.90;;;;;;10502665;28;20676;-79
2021/06/06 12:47:46;;;;;;;31.10;25.80;;;19.20;99.90;;;;;;10505575;28;20594;-78
2021/06/06 12:52:52;;;;;;;32.00;27.87;;;19.20;99.90;;;;;;10505043;28;20580;-79
2021/06/06 12:57:58;;;;;;;33.93;30.13;;;19.30;99.90;;;;;;10504003;28;20249;-78
2021/06/06 13:03:01;;;;;;;30.50;26.47;;;19.30;99.90;;;;;;10499329;28;20283;-78
2021/06/06 13:08:05;;;;;;;34.07;27.80;;;19.20;99.90;;;;;;10494754;28;20228;-79
2021/06/06 13:13:17;;;;;;;36.70;29.93;;;19.20;99.90;;;;;;10503788;28;20587;-79
2021/06/06 13:18:21;;;;;;;37.90;32.97;;;19.20;99.90;;;;;;10498085;28;20227;-79
2021/06/06 13:23:30;;;;;;;39.07;32.00;;;19.10;99.90;;;;;;10480130;28;20251;-78
2021/06/06 13:28:36;;;;;;;44.13;36.57;;;19.10;99.90;;;;;;10494555;28;20247;-78
2021/06/06 13:33:38;;;;;;;46.53;35.63;;;19.00;99.90;;;;;;10495227;28;20259;-79
2021/06/06 13:38:41;;;;;;;41.53;34.70;;;19.10;99.90;;;;;;10493640;28;20696;-78
2021/06/06 13:43:44;;;;;;;45.07;36.20;;;19.00;99.90;;;;;;10501499;28;20571;-79
2021/06/06 13:48:45;;;;;;;48.63;38.60;;;19.00;99.90;;;;;;10503473;28;20251;-79
2021/06/06 13:53:47;;;;;;;49.50;38.90;;;19.00;99.90;;;;;;10500025;28;20235;-78
2021/06/06 13:58:50;;;;;;;47.77;38.07;;;19.10;99.90;;;;;;10502875;28;20217;-79
2021/06/06 14:03:52;;;;;;;46.43;38.77;;;19.00;99.90;;;;;;10501401;28;20208;-77
2021/06/06 14:08:53;;;;;;;48.10;38.77;;;19.10;99.90;;;;;;10487077;28;20248;-78
2021/06/06 14:13:57;;;;;;;50.50;36.80;;;19.10;99.90;;;;;;10474093;28;20192;-78
2021/06/06 14:19:00;;;;;;;46.60;39.07;;;19.10;99.90;;;;;;10479477;28;20675;-78
2021/06/06 14:24:02;;;;;;;39.47;33.93;;;19.20;99.90;;;;;;10484580;28;20232;-78
2021/06/06 14:29:08;;;;;;;45.70;37.77;;;19.20;99.90;;;;;;10478976;28;20307;-79
2021/06/06 14:34:10;;;;;;;43.53;34.70;;;19.30;99.90;;;;;;10486260;28;20554;-78
2021/06/06 14:39:13;;;;;;;42.80;35.37;;;19.40;99.90;;;;;;10474147;28;20650;-79
2021/06/06 14:44:17;;;;;;;39.67;34.60;;;19.50;99.90;;;;;;10498107;28;20309;-78
2021/06/06 14:49:22;;;;;;;37.73;32.73;;;19.60;99.90;;;;;;10474137;28;20223;-77
2021/06/06 14:54:24;;;;;;;43.40;35.10;;;19.60;99.90;;;;;;10485086;28;20278;-77
2021/06/06 14:59:27;;;;;;;36.67;31.67;;;19.60;99.90;;;;;;10450913;28;20279;-78
2021/06/06 15:04:29;;;;;;;36.23;29.70;;;19.70;99.90;;;;;;10479071;28;20235;-78
2021/06/06 15:09:31;;;;;;;35.20;30.00;;;19.70;99.90;;;;;;10486027;28;20295;-78
2021/06/06 15:14:34;;;;;;;38.33;31.57;;;19.80;99.90;;;;;;10499547;28;21374;-78
2021/06/06 15:19:35;;;;;;;33.43;29.60;;;19.80;99.90;;;;;;10495992;28;20254;-78
2021/06/06 15:24:37;;;;;;;32.00;28.57;;;19.80;99.90;;;;;;10497281;28;20654;-79
2021/06/06 15:29:40;;;;;;;32.37;28.90;;;19.80;99.90;;;;;;10487118;28;20213;-77
2021/06/06 15:34:41;;;;;;;34.27;30.73;;;19.90;99.90;;;;;;10479743;28;20339;-78
2021/06/06 15:39:43;;;;;;;35.27;31.27;;;19.80;99.90;;;;;;10492225;28;20204;-78
2021/06/06 15:44:46;;;;;;;33.60;30.20;;;19.80;99.90;;;;;;10487905;28;20221;-78
2021/06/06 15:49:48;;;;;;;35.83;32.10;;;19.80;99.90;;;;;;10499516;28;20340;-78
2021/06/06 15:54:49;;;;;;;34.77;31.20;;;19.80;99.90;;;;;;10496963;28;20221;-78
2021/06/06 15:59:55;;;;;;;34.60;31.00;;;19.70;99.90;;;;;;10470410;28;20243;-78
2021/06/06 16:04:57;;;;;;;33.40;29.17;;;19.70;99.90;;;;;;10458751;28;20290;-78
2021/06/06 16:09:59;;;;;;;33.60;30.10;;;19.70;99.90;;;;;;10462122;28;20237;-77
2021/06/06 16:15:03;;;;;;;37.17;32.40;;;19.60;99.90;;;;;;10462937;28;20727;-77
2021/06/06 16:20:06;;;;;;;41.63;34.57;;;19.60;99.90;;;;;;10457095;28;20620;-77
2021/06/06 16:25:12;;;;;;;39.57;35.40;;;19.50;99.90;;;;;;10452359;28;20278;-78
2021/06/06 16:30:18;;;;;;;39.13;34.67;;;19.50;99.90;;;;;;10450017;28;20738;-79
2021/06/06 16:35:21;;;;;;;42.87;37.07;;;19.40;99.90;;;;;;10458952;28;20311;-77
2021/06/06 16:40:23;;;;;;;39.53;35.23;;;19.40;99.90;;;;;;10457266;28;21029;-77
2021/06/06 16:45:30;;;;;;;38.10;34.07;;;19.40;99.90;;;;;;10484045;28;20315;-78
2021/06/06 16:50:32;;;;;;;38.17;34.17;;;19.40;99.90;;;;;;10462229;28;20353;-77
2021/06/06 16:55:36;;;;;;;35.03;31.43;;;19.50;99.90;;;;;;10454002;28;20304;-77
2021/06/06 17:00:42;;;;;;;32.63;29.23;;;19.50;99.90;;;;;;10450385;28;20228;-77
2021/06/06 17:05:46;;;;;;;35.50;31.80;;;19.40;99.90;;;;;;10483630;28;20219;-77
2021/06/06 17:10:48;;;;;;;30.10;27.10;;;19.50;99.90;;;;;;10483884;28;20212;-77
2021/06/06 17:15:53;;;;;;;31.87;28.67;;;19.50;99.90;;;;;;10473874;28;20283;-76
2021/06/06 17:20:56;;;;;;;31.83;28.53;;;19.60;99.90;;;;;;10466257;28;20284;-77
2021/06/06 17:25:58;;;;;;;30.47;27.40;;;19.60;99.90;;;;;;10469054;28;20219;-76
2021/06/06 17:31:04;;;;;;;27.73;24.97;;;19.60;99.90;;;;;;10460032;28;20228;-76
2021/06/06 17:36:06;;;;;;;29.23;26.30;;;19.60;99.90;;;;;;10459659;28;20228;-75
2021/06/06 17:41:17;;;;;;;27.57;24.67;;;19.60;99.90;;;;;;10460322;28;20276;-76
2021/06/06 17:46:20;;;;;;;29.47;26.37;;;19.60;99.90;;;;;;10464939;28;20221;-76
2021/06/06 17:51:22;;;;;;;28.80;25.90;;;19.60;99.90;;;;;;10481273;28;20209;-77
2021/06/06 17:56:24;;;;;;;32.10;28.70;;;19.60;99.90;;;;;;10490885;28;20325;-76
2021/06/06 18:01:30;;;;;;;31.97;28.53;;;19.60;99.90;;;;;;10485133;28;20615;-76
2021/06/06 18:06:31;;;;;;;30.53;27.23;;;19.60;99.90;;;;;;10488519;28;20220;-76
2021/06/06 18:11:34;;;;;;;32.87;29.57;;;19.60;99.90;;;;;;10490069;28;20224;-76
2021/06/06 18:16:37;;;;;;;31.57;28.03;;;19.60;99.90;;;;;;10481540;28;20311;-76
2021/06/06 18:21:43;;;;;;;30.87;27.67;;;19.60;99.90;;;;;;10490221;28;20200;-76
2021/06/06 18:26:46;;;;;;;31.73;28.53;;;19.60;99.90;;;;;;10485340;28;20274;-76
2021/06/06 18:31:50;;;;;;;33.07;29.60;;;19.60;99.90;;;;;;10486087;28;20216;-76
2021/06/06 18:36:52;;;;;;;34.90;28.57;;;19.60;99.90;;;;;;10487879;28;20731;-76
2021/06/06 18:41:54;;;;;;;29.47;26.43;;;19.50;99.90;;;;;;10488180;28;20196;-76
2021/06/06 18:46:57;;;;;;;30.80;27.57;;;19.50;99.90;;;;;;10484470;28;20220;-76
2021/06/06 18:51:59;;;;;;;28.00;25.10;;;19.50;99.90;;;;;;10489009;28;20791;-76
2021/06/06 18:57:00;;;;;;;23.80;21.30;;;19.50;99.90;;;;;;10489802;28;20231;-76
2021/06/06 19:02:04;;;;;;;27.20;22.97;;;19.40;99.90;;;;;;10471427;28;20202;-78
2021/06/06 19:07:06;;;;;;;21.30;19.20;;;19.40;99.90;;;;;;10472028;28;20222;-78
2021/06/06 19:12:08;;;;;;;21.33;19.03;;;19.40;99.90;;;;;;10477456;28;20228;-78
2021/06/06 19:17:14;;;;;;;22.37;18.57;;;19.30;99.90;;;;;;10474262;28;20624;-77
2021/06/06 19:22:16;;;;;;;19.90;18.00;;;19.30;99.90;;;;;;10497274;28;20223;-77
2021/06/06 19:27:19;;;;;;;20.07;17.83;;;19.30;99.90;;;;;;10492317;28;20246;-77
2021/06/06 19:32:24;;;;;;;18.93;17.03;;;19.30;99.90;;;;;;10494124;28;20684;-77
2021/06/06 19:37:26;;;;;;;19.47;17.63;;;19.30;99.90;;;;;;10489218;28;20228;-77
2021/06/06 19:42:28;;;;;;;19.33;17.20;;;19.20;99.90;;;;;;10478752;28;20327;-77
2021/06/06 19:47:31;;;;;;;19.93;18.13;;;19.20;99.90;;;;;;10471504;28;20255;-77
2021/06/06 19:52:32;;;;;;;21.23;17.97;;;19.20;99.90;;;;;;10461278;28;20260;-76
2021/06/06 19:57:34;;;;;;;18.10;16.20;;;19.20;99.90;;;;;;10462802;28;20223;-76
2021/06/06 20:02:38;;;;;;;17.77;16.00;;;19.20;99.90;;;;;;10450414;28;20225;-77
2021/06/06 20:07:40;;;;;;;19.63;16.30;;;19.20;99.90;;;;;;10461640;28;21089;-77
2021/06/06 20:12:42;;;;;;;18.30;15.70;;;19.10;99.90;;;;;;10455310;28;20197;-76
2021/06/06 20:17:45;;;;;;;18.07;16.20;;;19.10;99.90;;;;;;10445888;28;20791;-76
2021/06/06 20:22:47;;;;;;;17.97;16.07;;;19.10;99.90;;;;;;10456915;28;20193;-76
2021/06/06 20:27:49;;;;;;;18.50;16.60;;;19.10;99.90;;;;;;10456725;28;20311;-77
2021/06/06 20:32:55;;;;;;;18.70;16.03;;;19.10;99.90;;;;;;10459457;28;20189;-77
2021/06/06 20:37:58;;;;;;;21.30;17.07;;;19.10;99.90;;;;;;10462329;28;20220;-77
2021/06/06 20:43:00;;;;;;;18.07;16.10;;;19.10;99.90;;;;;;10465624;28;20771;-77
2021/06/06 20:48:07;;;;;;;18.00;16.23;;;19.00;99.90;;;;;;10488745;28;20315;-77
2021/06/06 20:53:10;;;;;;;19.27;17.27;;;19.00;99.90;;;;;;10494187;28;20684;-78
2021/06/06 20:58:12;;;;;;;19.40;17.13;;;18.90;99.90;;;;;;10471080;28;20235;-77
2021/06/06 21:03:18;;;;;;;20.77;17.60;;;18.90;99.90;;;;;;10469950;28;20634;-78
2021/06/06 21:08:22;;;;;;;19.23;17.33;;;18.90;99.90;;;;;;10485841;28;20554;-78
2021/06/06 21:13:24;;;;;;;18.90;17.00;;;18.80;99.90;;;;;;10476878;28;20258;-77
2021/06/06 21:18:28;;;;;;;20.17;17.20;;;18.80;99.90;;;;;;10489368;28;20307;-77
2021/06/06 21:23:32;;;;;;;18.77;16.77;;;18.80;99.90;;;;;;10486725;28;20204;-77
2021/06/06 21:28:35;;;;;;;19.90;17.80;;;18.80;99.90;;;;;;10484622;28;20223;-77
2021/06/06 21:33:41;;;;;;;20.00;17.23;;;18.90;99.90;;;;;;10449415;28;20601;-77
2021/06/06 21:38:44;;;;;;;20.70;18.50;;;18.80;99.90;;;;;;10492286;28;20581;-77
2021/06/06 21:43:46;;;;;;;19.40;16.97;;;18.80;99.90;;;;;;10486366;28;20796;-76
2021/06/06 21:48:51;;;;;;;20.73;18.50;;;18.80;99.90;;;;;;10486760;28;20232;-78
2021/06/06 21:53:53;;;;;;;20.17;18.13;;;18.80;99.90;;;;;;10474399;28;20211;-78
2021/06/06 21:58:55;;;;;;;19.57;17.67;;;18.80;99.90;;;;;;10469177;28;20649;-77
2021/06/06 22:03:58;;;;;;;18.70;16.50;;;18.80;99.90;;;;;;10482907;28;20206;-78
2021/06/06 22:09:03;;;;;;;19.83;17.80;;;18.80;99.90;;;;;;10461594;28;20713;-78
2021/06/06 22:14:05;;;;;;;20.37;17.93;;;18.80;99.90;;;;;;10480212;28;20654;-78
2021/06/06 22:19:44;;;;;;;19.77;17.50;;;18.80;99.90;;;;;;10495158;28;20197;-78
2021/06/06 22:25:23;;;;;;;19.90;17.87;;;18.80;99.90;;;;;;10555360;22;20762;-79
2021/06/06 22:31:02;;;;;;;21.47;18.73;;;18.80;99.90;;;;;;10510495;28;20224;-80
2021/06/06 22:36:41;;;;;;;23.67;19.67;;;18.70;99.90;;;;;;10478150;28;20211;-80
2021/06/06 22:42:20;;;;;;;20.13;18.20;;;18.70;99.90;;;;;;10487598;28;20240;-79
2021/06/06 22:47:59;;;;;;;19.33;17.33;;;18.70;99.90;;;;;;10492946;28;20268;-80
2021/06/06 22:53:38;;;;;;;20.20;18.03;;;18.70;99.90;;;;;;10481825;28;20283;-80
2021/06/06 22:59:17;;;;;;;20.63;18.17;;;18.70;99.90;;;;;;10479408;28;20228;-80
2021/06/06 23:04:56;;;;;;;20.73;18.60;;;18.70;99.90;;;;;;10473848;28;20236;-81
2021/06/06 23:10:35;;;;;;;21.03;18.87;;;18.70;99.90;;;;;;10493911;28;20695;-81
2021/06/06 23:15:37;;;;;;;23.07;20.73;;;18.70;99.90;;;;;;10502141;28;20204;-81
2021/06/06 23:20:39;;;;;;;22.90;20.37;;;18.70;99.90;;;;;;10501882;28;20255;-81
2021/06/06 23:25:42;;;;;;;22.23;19.83;;;18.70;99.90;;;;;;10501027;28;20224;-81
2021/06/06 23:30:44;;;;;;;23.27;20.90;;;18.70;99.90;;;;;;10499328;28;20227;-81
2021/06/06 23:35:47;;;;;;;20.57;18.37;;;18.70;99.90;;;;;;10495298;28;20257;-81
2021/06/06 23:40:48;;;;;;;22.70;20.30;;;18.60;99.90;;;;;;10499393;28;20662;-80
2021/06/06 23:45:50;;;;;;;22.43;20.00;;;18.60;99.90;;;;;;10493330;28;20204;-81
2021/06/06 23:50:53;;;;;;;25.03;21.60;;;18.60;99.90;;;;;;10493421;28;20224;-81
2021/06/06 23:55:55;;;;;;;20.60;18.40;;;18.60;99.90;;;;;;10499643;28;20656;-81
